createdAt,value
2022-12-20T00:01:45.439Z,98753.56
2022-12-20T00:04:50.288Z,98769.56
2022-12-20T00:07:53.777Z,98763.72
2022-12-20T00:10:57.439Z,98764.56
2022-12-20T00:14:03.098Z,98760.31
2022-12-20T00:17:06.387Z,98744.09
2022-12-20T00:20:14.871Z,98746.63
2022-12-20T00:23:18.630Z,98756.91
2022-12-20T00:26:27.837Z,98773.03
2022-12-20T00:29:32.554Z,98706.53
2022-12-20T00:32:36.308Z,98780.69
2022-12-20T00:35:46.872Z,98767.09
2022-12-20T00:38:52.352Z,98739.00
2022-12-20T00:42:00.633Z,98767.09
2022-12-20T00:45:10.384Z,98762.91
2022-12-20T00:48:15.823Z,98772.22
2022-12-20T00:51:26.265Z,98776.56
2022-12-20T00:54:29.540Z,98779.84
2022-12-20T00:57:34.882Z,98779.03
2022-12-20T01:00:40.955Z,98781.56
2022-12-20T01:03:47.425Z,98770.50
2022-12-20T01:06:54.444Z,98751.81
2022-12-20T01:10:00.293Z,98743.31
2022-12-20T01:13:03.726Z,98768.72
2022-12-20T01:16:15.561Z,98773.09
2022-12-20T01:19:20.949Z,98743.31
2022-12-20T01:22:30.573Z,98753.56
2022-12-20T01:25:58.662Z,98749.28
2022-12-20T01:29:22.668Z,98733.13
2022-12-20T01:32:45.796Z,98736.53
2022-12-20T01:36:17.273Z,98739.94
2022-12-20T01:39:22.095Z,98751.81
2022-12-20T01:42:26.754Z,98757.69
2022-12-20T01:45:31.785Z,98752.59
2022-12-20T01:48:51.268Z,98748.28
2022-12-20T01:52:01.702Z,98759.44
2022-12-20T01:55:13.935Z,98768.66
2022-12-20T01:58:23.955Z,98765.19
2022-12-20T02:01:28.029Z,98771.03
2022-12-20T02:04:32.282Z,98695.50
2022-12-20T02:07:38.797Z,98682.56
2022-12-20T02:11:01.700Z,98715.97
2022-12-20T02:14:17.828Z,98721.88
2022-12-20T02:17:39.081Z,98706.56
2022-12-20T02:21:13.918Z,98727.13
2022-12-20T02:24:42.642Z,98725.41
2022-12-20T02:28:05.339Z,98714.44
2022-12-20T02:31:17.902Z,98692.25
2022-12-20T02:34:24.997Z,98677.88
2022-12-20T02:37:30.386Z,98662.53
2022-12-20T02:40:40.669Z,98677.03
2022-12-20T02:44:28.699Z,98657.44
2022-12-20T02:47:57.018Z,98660.84
2022-12-20T02:51:24.546Z,98681.34
2022-12-20T02:54:48.158Z,98682.13
2022-12-20T02:58:00.434Z,98684.72
2022-12-20T03:01:13.298Z,98666.00
2022-12-20T03:04:21.268Z,98669.41
2022-12-20T03:07:24.538Z,98672.84
2022-12-20T03:10:28.918Z,98682.91
2022-12-20T03:13:32.419Z,98689.69
2022-12-20T03:16:43.564Z,98648.81
2022-12-20T03:19:55.368Z,98636.22
2022-12-20T03:22:59.585Z,98664.34
2022-12-20T03:26:04.159Z,98673.69
2022-12-20T03:29:12.755Z,98671.09
2022-12-20T03:32:21.155Z,98666.84
2022-12-20T03:35:28.185Z,98677.88
2022-12-20T03:38:34.738Z,98670.31
2022-12-20T03:41:43.732Z,98676.97
2022-12-20T03:44:51.405Z,98698.19
2022-12-20T03:47:54.920Z,98688.28
2022-12-20T03:51:02.290Z,98695.66
2022-12-20T03:54:06.221Z,98681.28
2022-12-20T03:57:26.996Z,98683.03
2022-12-20T04:00:31.815Z,98675.53
2022-12-20T04:03:54.003Z,98672.09
2022-12-20T04:07:05.327Z,98675.41
2022-12-20T04:10:14.435Z,98662.78
2022-12-20T04:13:24.100Z,98636.22
2022-12-20T04:16:30.829Z,98662.69
2022-12-20T04:19:34.224Z,98666.91
2022-12-20T04:22:44.953Z,98660.09
2022-12-20T04:25:51.316Z,98650.75
2022-12-20T04:28:58.366Z,98608.16
2022-12-20T04:34:50.488Z,98651.63
2022-12-20T04:38:14.029Z,98652.47
2022-12-20T04:41:40.228Z,98652.47
2022-12-20T04:45:10.322Z,98638.88
2022-12-20T04:48:46.168Z,98637.25
2022-12-20T04:51:43.680Z,98619.34
2022-12-20T04:54:55.104Z,98633.84
2022-12-20T04:58:07.491Z,98614.25
2022-12-20T05:01:13.924Z,98613.50
2022-12-20T05:04:25.332Z,98611.72
2022-12-20T05:07:31.226Z,98607.50
2022-12-20T05:10:39.290Z,98625.34
2022-12-20T05:13:42.701Z,98610.00
2022-12-20T05:16:48.527Z,98608.31
2022-12-20T05:19:53.921Z,98614.25
2022-12-20T05:23:17.577Z,98608.31
2022-12-20T05:26:28.852Z,98598.16
2022-12-20T05:29:34.948Z,98593.06
2022-12-20T05:32:43.404Z,98581.19
2022-12-20T05:35:46.904Z,98573.53
2022-12-20T05:39:01.928Z,98577.78
2022-12-20T05:42:12.524Z,98578.66
2022-12-20T05:45:16.141Z,98589.66
2022-12-20T05:48:28.812Z,98593.94
2022-12-20T05:51:33.986Z,98564.22
2022-12-20T05:55:05.771Z,98590.56
2022-12-20T05:58:18.355Z,98593.91
2022-12-20T06:01:34.947Z,98578.72
2022-12-20T06:04:40.885Z,98582.94
2022-12-20T06:07:53.860Z,98583.84
2022-12-20T06:11:03.326Z,98605.06
2022-12-20T06:14:10.336Z,98584.66
2022-12-20T06:17:17.256Z,98594.03
2022-12-20T06:20:22.702Z,98585.50
2022-12-20T06:23:29.192Z,98569.38
2022-12-20T06:26:47.141Z,98574.50
2022-12-20T06:29:54.321Z,98571.94
2022-12-20T06:33:01.854Z,98577.91
2022-12-20T06:36:07.908Z,98573.63
2022-12-20T06:39:11.609Z,98546.41
2022-12-20T06:42:26.736Z,98574.53
2022-12-20T06:45:31.738Z,98599.16
2022-12-20T06:48:41.715Z,98615.25
2022-12-20T06:52:11.948Z,98610.16
2022-12-20T06:55:41.364Z,98618.66
2022-12-20T06:59:08.167Z,98602.47
2022-12-20T07:02:34.269Z,98641.59
2022-12-20T07:05:57.630Z,98617.84
2022-12-20T07:09:03.978Z,98619.63
2022-12-20T07:12:09.862Z,98616.16
2022-12-20T07:15:14.471Z,98629.75
2022-12-20T07:18:17.609Z,98622.94
2022-12-20T07:21:27.760Z,98598.31
2022-12-20T07:24:31.059Z,98588.09
2022-12-20T07:27:35.573Z,98578.75
2022-12-20T07:30:40.930Z,98589.78
2022-12-20T07:33:45.369Z,98586.41
2022-12-20T07:36:49.156Z,98511.56
2022-12-20T07:40:12.640Z,98580.47
2022-12-20T07:43:25.739Z,98563.47
2022-12-20T07:46:46.093Z,98523.47
2022-12-20T07:49:56.391Z,98576.22
2022-12-20T07:53:04.110Z,98565.16
2022-12-20T07:56:12.450Z,98577.06
2022-12-20T07:59:22.663Z,98549.84
2022-12-20T08:02:32.587Z,98583.84
2022-12-20T08:05:42.281Z,98571.13
2022-12-20T08:08:48.859Z,98553.25
2022-12-20T08:11:54.582Z,98539.66
2022-12-20T08:14:59.518Z,98543.91
2022-12-20T08:18:06.192Z,98547.28
2022-12-20T08:21:10.687Z,98539.63
2022-12-20T08:24:16.487Z,98521.81
2022-12-20T08:27:19.781Z,98533.66
2022-12-20T08:30:23.235Z,98537.94
2022-12-20T08:33:27.861Z,98538.81
2022-12-20T08:36:31.881Z,98548.16
2022-12-20T08:39:35.305Z,98535.38
2022-12-20T08:43:02.419Z,98529.44
2022-12-20T08:46:31.552Z,98526.03
2022-12-20T08:49:57.895Z,98514.97
2022-12-20T08:53:21.221Z,98505.59
2022-12-20T08:56:44.381Z,98506.44
2022-12-20T08:59:47.695Z,98521.78
2022-12-20T09:02:51.898Z,98522.59
2022-12-20T09:05:56.953Z,98532.81
2022-12-20T09:09:01.712Z,98524.28
2022-12-20T09:12:05.706Z,98504.69
2022-12-20T09:15:11.565Z,98514.97
2022-12-20T09:18:14.998Z,98518.31
2022-12-20T09:21:29.909Z,98521.72
2022-12-20T09:24:33.427Z,98535.31
2022-12-20T09:27:38.055Z,98537.03
2022-12-20T09:30:41.315Z,98530.22
2022-12-20T09:33:45.698Z,98528.53
2022-12-20T09:36:50.267Z,98528.50
2022-12-20T09:39:53.528Z,98519.88
2022-12-20T09:42:57.336Z,98518.28
2022-12-20T09:46:02.411Z,98503.81
2022-12-20T09:49:05.746Z,98506.38
2022-12-20T09:52:28.937Z,98507.19
2022-12-20T09:55:38.049Z,98436.63
2022-12-20T09:58:58.952Z,98487.47
2022-12-20T10:02:19.532Z,98456.97
2022-12-20T10:05:41.220Z,98474.69
2022-12-20T10:08:55.608Z,98464.47
2022-12-20T10:12:07.891Z,98472.13
2022-12-20T10:15:31.437Z,98459.38
2022-12-20T10:18:48.934Z,98451.63
2022-12-20T10:22:18.604Z,98457.66
2022-12-20T10:25:44.936Z,98388.88
2022-12-20T10:29:08.039Z,98427.66
2022-12-20T10:35:27.241Z,98410.63
2022-12-20T10:38:45.748Z,98414.81
2022-12-20T10:41:52.016Z,98402.81
2022-12-20T10:44:56.966Z,98422.34
2022-12-20T10:48:02.273Z,98400.16
2022-12-20T10:51:17.234Z,98409.63
2022-12-20T10:54:24.975Z,98408.66
2022-12-20T10:57:33.872Z,98381.47
2022-12-20T11:00:37.193Z,98409.59
2022-12-20T11:03:56.267Z,98398.41
2022-12-20T11:07:02.295Z,98393.13
2022-12-20T11:10:21.139Z,98393.25
2022-12-20T11:13:27.982Z,98389.63
2022-12-20T11:16:38.087Z,98387.81
2022-12-20T11:20:02.257Z,98379.53
2022-12-20T11:23:24.049Z,98360.41
2022-12-20T11:26:40.237Z,98366.38
2022-12-20T11:30:07.716Z,98335.75
2022-12-20T11:33:42.471Z,98379.50
2022-12-20T11:37:18.544Z,98398.19
2022-12-20T11:40:49.070Z,98396.13
2022-12-20T11:44:25.414Z,98389.56
2022-12-20T11:47:51.595Z,98373.41
2022-12-20T11:51:03.332Z,98360.13
2022-12-20T11:54:35.977Z,98303.28
2022-12-20T11:58:20.363Z,98342.34
2022-12-20T12:01:50.204Z,98337.25
2022-12-20T12:05:21.644Z,98333.69
2022-12-20T12:08:50.448Z,98332.97
2022-12-20T12:12:09.613Z,98326.94
2022-12-20T12:15:31.835Z,98345.75
2022-12-20T12:30:37.600Z,98297.81
2022-12-20T12:34:12.302Z,98279.81
2022-12-20T12:37:50.180Z,98284.06
2022-12-20T12:41:24.754Z,98218.03
2022-12-20T12:44:44.258Z,98300.16
2022-12-20T12:47:56.448Z,98314.31
2022-12-20T12:51:08.444Z,98304.81
2022-12-20T12:54:23.874Z,98269.50
2022-12-20T12:57:28.179Z,98227.00
2022-12-20T13:00:53.736Z,98176.03
2022-12-20T13:04:25.077Z,98250.53
2022-12-20T13:07:44.639Z,98240.34
2022-12-20T13:11:29.992Z,98248.03
2022-12-20T13:14:51.819Z,98252.34
2022-12-20T13:18:23.606Z,98253.59
2022-12-20T13:21:48.610Z,98237.81
2022-12-20T13:24:56.797Z,98239.56
2022-12-20T13:28:50.171Z,98233.47
2022-12-20T13:32:53.731Z,98229.97
2022-12-20T13:36:05.140Z,98211.81
2022-12-20T13:39:35.328Z,98253.69
2022-12-20T13:43:01.054Z,98247.34
2022-12-20T13:46:15.127Z,98257.13
2022-12-20T13:49:27.041Z,98272.56
2022-12-20T13:52:38.567Z,98283.63
2022-12-20T13:55:44.155Z,98273.38
2022-12-20T13:58:48.282Z,98284.47
2022-12-20T14:01:54.872Z,98299.06
2022-12-20T14:05:05.584Z,98304.91
2022-12-20T14:08:16.278Z,98292.72
2022-12-20T14:11:23.724Z,98280.63
2022-12-20T14:14:28.605Z,98258.28
2022-12-20T14:17:33.925Z,98239.50
2022-12-20T14:20:38.804Z,98224.41
2022-12-20T14:23:45.352Z,98236.94
2022-12-20T14:27:03.345Z,98242.94
2022-12-20T14:30:34.749Z,98227.13
2022-12-20T14:33:47.068Z,98206.41
2022-12-20T14:37:10.549Z,98204.75
2022-12-20T14:40:20.604Z,98191.34
2022-12-20T14:43:29.258Z,98222.84
2022-12-20T14:46:36.736Z,98223.72
2022-12-20T14:49:54.895Z,98182.66
2022-12-20T14:52:58.831Z,98178.38
2022-12-20T14:56:04.771Z,98147.13
2022-12-20T14:59:20.012Z,98205.97
2022-12-20T15:02:49.082Z,98168.69
2022-12-20T15:05:57.776Z,98196.47
2022-12-20T15:09:01.273Z,98202.34
2022-12-20T15:12:11.400Z,98181.03
2022-12-20T15:15:29.392Z,98180.09
2022-12-20T15:18:42.142Z,98182.88
2022-12-20T15:21:47.119Z,98187.84
2022-12-20T15:24:53.643Z,98186.66
2022-12-20T15:27:57.391Z,98197.56
2022-12-20T15:31:04.720Z,98196.31
2022-12-20T15:34:14.556Z,98198.56
2022-12-20T15:37:20.311Z,98204.72
2022-12-20T15:40:24.581Z,98176.84
2022-12-20T15:43:28.180Z,98184.31
2022-12-20T15:46:36.555Z,98176.91
2022-12-20T15:49:49.864Z,98176.88
2022-12-20T15:52:57.132Z,98178.56
2022-12-20T15:56:01.387Z,98192.28
2022-12-20T15:59:24.448Z,98182.00
2022-12-20T16:02:33.981Z,98186.66
2022-12-20T16:05:40.242Z,98185.50
2022-12-20T16:08:43.913Z,98194.88
2022-12-20T16:11:51.475Z,98197.47
2022-12-20T16:15:21.754Z,98158.50
2022-12-20T16:18:46.420Z,98172.00
2022-12-20T16:22:17.683Z,98168.56
2022-12-20T16:25:40.844Z,98173.66
2022-12-20T16:29:04.000Z,98168.00
2022-12-20T16:34:45.709Z,98166.19
2022-12-20T16:37:52.378Z,98150.94
2022-12-20T16:40:56.415Z,98143.16
2022-12-20T16:44:02.143Z,98146.59
2022-12-20T16:47:06.283Z,98141.56
2022-12-20T16:50:14.798Z,98141.72
2022-12-20T16:53:18.031Z,98137.47
2022-12-20T16:56:22.338Z,98133.25
2022-12-20T16:59:26.359Z,98136.53
2022-12-20T17:02:34.959Z,98146.97
2022-12-20T17:05:41.778Z,98145.25
2022-12-20T17:08:52.587Z,98143.56
2022-12-20T17:11:56.206Z,98158.03
2022-12-20T17:14:59.539Z,98172.50
2022-12-20T17:18:03.151Z,98169.16
2022-12-20T17:21:23.401Z,98158.16
2022-12-20T17:24:26.991Z,98157.31
2022-12-20T17:27:30.930Z,98147.13
2022-12-20T17:30:36.999Z,98141.19
2022-12-20T17:33:40.858Z,98139.44
2022-12-20T17:36:46.122Z,98142.88
2022-12-20T17:39:52.495Z,98139.50
2022-12-20T17:43:01.515Z,98155.13
2022-12-20T17:46:04.842Z,98173.00
2022-12-20T17:49:09.532Z,98185.91
2022-12-20T17:52:15.790Z,98179.63
2022-12-20T17:55:24.149Z,98182.56
2022-12-20T17:58:30.187Z,98163.53
2022-12-20T18:01:38.027Z,98153.22
2022-12-20T18:04:44.874Z,98138.03
2022-12-20T18:07:56.804Z,98139.00
2022-12-20T18:11:00.160Z,98150.22
2022-12-20T18:14:04.669Z,98155.63
2022-12-20T18:17:08.558Z,98139.50
2022-12-20T18:20:15.814Z,98167.78
2022-12-20T18:23:20.596Z,98161.19
2022-12-20T18:26:26.469Z,98166.91
2022-12-20T18:29:31.357Z,98117.31
2022-12-20T18:32:43.630Z,98127.84
2022-12-20T18:36:01.696Z,98166.13
2022-12-20T18:39:09.070Z,98105.69
2022-12-20T18:42:13.434Z,98151.38
2022-12-20T18:45:20.100Z,98149.16
2022-12-20T18:48:25.629Z,98145.88
2022-12-20T18:51:36.536Z,98132.44
2022-12-20T18:54:42.178Z,98134.94
2022-12-20T18:58:00.702Z,98121.25
2022-12-20T19:01:09.835Z,98128.19
2022-12-20T19:04:24.206Z,98114.63
2022-12-20T19:07:28.064Z,98110.34
2022-12-20T19:10:35.923Z,98089.94
2022-12-20T19:13:39.771Z,98084.81
2022-12-20T19:16:43.281Z,98074.63
2022-12-20T19:19:46.632Z,98107.03
2022-12-20T19:22:51.285Z,98096.41
2022-12-20T19:26:05.258Z,98088.94
2022-12-20T19:29:11.845Z,98079.47
2022-12-20T19:32:18.071Z,97989.78
2022-12-20T19:35:53.639Z,98064.09
2022-12-20T19:38:46.305Z,98053.03
2022-12-20T19:42:22.169Z,98052.88
2022-12-20T19:45:19.146Z,98059.31
2022-12-20T19:48:22.716Z,98062.75
2022-12-20T19:51:27.743Z,98077.47
2022-12-20T19:54:31.497Z,98087.34
2022-12-20T19:57:36.439Z,98077.47
2022-12-20T20:00:46.601Z,98083.38
2022-12-20T20:03:49.933Z,98096.84
2022-12-20T20:06:53.554Z,98095.59
2022-12-20T20:09:57.589Z,98110.72
2022-12-20T20:13:02.201Z,98097.06
2022-12-20T20:16:06.645Z,98093.13
2022-12-20T20:19:11.898Z,98070.78
2022-12-20T20:22:22.550Z,98081.72
2022-12-20T20:25:27.017Z,98066.44
2022-12-20T20:28:34.044Z,98070.72
2022-12-20T20:31:39.773Z,98067.28
2022-12-20T20:34:44.013Z,98043.28
2022-12-20T20:37:47.412Z,98061.47
2022-12-20T20:40:51.716Z,98083.03
2022-12-20T20:43:56.341Z,98061.06
2022-12-20T20:47:00.668Z,98068.53
2022-12-20T20:50:04.045Z,98078.84
2022-12-20T20:53:08.310Z,98059.19
2022-12-20T20:56:14.271Z,98064.03
2022-12-20T20:59:19.044Z,98078.53
2022-12-20T21:02:24.598Z,98066.72
2022-12-20T21:08:52.328Z,98056.34
2022-12-20T21:11:56.060Z,98045.50
2022-12-20T21:15:21.956Z,98061.56
2022-12-20T21:18:25.091Z,98057.28
2022-12-20T21:21:28.937Z,98047.16
2022-12-20T21:24:32.817Z,98051.44
2022-12-20T21:27:36.146Z,98058.94
2022-12-20T21:30:42.182Z,98064.41
2022-12-20T21:33:46.218Z,98047.38
2022-12-20T21:36:49.472Z,98040.91
2022-12-20T21:39:52.831Z,98051.31
2022-12-20T21:42:56.283Z,98053.88
2022-12-20T21:46:01.377Z,98029.38
2022-12-20T21:49:05.055Z,98077.53
2022-12-20T21:52:08.446Z,98069.91
2022-12-20T21:55:12.370Z,98067.84
2022-12-20T21:58:15.956Z,98066.00
2022-12-20T22:01:22.619Z,98060.50
2022-12-20T22:04:25.972Z,98070.59
2022-12-20T22:07:29.673Z,98071.03
2022-12-20T22:10:33.052Z,98067.59
2022-12-20T22:13:57.163Z,98034.72
2022-12-20T22:17:21.876Z,98087.31
2022-12-20T22:20:45.904Z,98090.72
2022-12-20T22:24:10.633Z,98083.78
2022-12-20T22:27:13.925Z,98077.69
2022-12-20T22:30:17.811Z,98076.84
2022-12-20T22:45:05.692Z,98099.84
2022-12-20T22:48:11.328Z,98097.06
2022-12-20T22:51:16.845Z,98096.91
2022-12-20T22:54:20.189Z,98098.03
2022-12-20T22:57:23.589Z,98084.59
2022-12-20T23:00:28.397Z,98080.38
2022-12-20T23:03:33.849Z,98076.69
2022-12-20T23:06:37.151Z,98065.00
2022-12-20T23:09:41.283Z,98080.28
2022-12-20T23:13:01.874Z,98076.16
2022-12-20T23:16:06.810Z,98084.81
2022-12-20T23:19:11.513Z,98092.97
2022-12-20T23:22:32.106Z,98087.88
2022-12-20T23:25:35.638Z,98078.72
2022-12-20T23:28:43.785Z,98087.25
2022-12-20T23:31:48.466Z,98087.81
2022-12-20T23:34:52.840Z,98078.63
2022-12-20T23:37:57.719Z,98060.84
2022-12-20T23:41:01.069Z,98075.19
2022-12-20T23:44:06.170Z,98070.84
2022-12-20T23:47:18.510Z,98069.09
2022-12-20T23:50:22.291Z,98060.06
2022-12-20T23:53:26.284Z,98060.66
2022-12-20T23:56:29.728Z,98022.38
2022-12-20T23:59:33.752Z,98076.50
